Terminal Aerodrome Forecast
Issued by NWS

Home | Current Version | Previous Version | Graphics & Text | Print | Product List | Glossary On
Versions: 1 2 3 4 5 6 7 8 9 10 11 12 13 14 15 16 17 18
000
FTUS43 KMPX 140831 AAA
TAFAXN
TAF AMD
KAXN 140831Z 1409/1506 10005KT P6SM OVC017
     FM141800 05006KT P6SM OVC020
     FM142100 07005KT P6SM SCT020 BKN040=

USA.gov is the U.S. government's official web portal to all federal, state and local government web resources and services.